createdAt,value
2022-11-25T00:01:08.818Z,-0.70
2022-11-25T00:03:36.227Z,-0.70
2022-11-25T00:06:10.635Z,-0.70
2022-11-25T00:08:37.919Z,-0.70
2022-11-25T00:11:05.798Z,-0.60
2022-11-25T00:13:33.313Z,-0.50
2022-11-25T00:16:04.966Z,-0.40
2022-11-25T00:18:32.068Z,-0.40
2022-11-25T00:21:05.206Z,-0.40
2022-11-25T00:23:33.471Z,-0.30
2022-11-25T00:26:13.048Z,-0.30
2022-11-25T00:28:41.439Z,-0.20
2022-11-25T00:31:28.797Z,-0.20
2022-11-25T00:33:57.516Z,-0.20
2022-11-25T00:36:29.264Z,-0.20
2022-11-25T00:39:01.830Z,-0.20
2022-11-25T00:41:48.261Z,-0.30
2022-11-25T00:44:37.042Z,-0.30
2022-11-25T00:47:09.304Z,-0.30
2022-11-25T00:49:37.131Z,-0.30
2022-11-25T00:52:04.892Z,-0.40
2022-11-25T00:54:31.950Z,-0.40
2022-11-25T00:56:59.094Z,-0.50
2022-11-25T00:59:26.221Z,-0.50
2022-11-25T01:01:53.218Z,-0.60
2022-11-25T01:04:20.175Z,-0.60
2022-11-25T01:06:47.067Z,-0.60
2022-11-25T01:09:15.211Z,-0.70
2022-11-25T01:11:43.130Z,-0.70
2022-11-25T01:14:10.023Z,-0.70
2022-11-25T01:16:36.976Z,-0.70
2022-11-25T01:19:04.384Z,-0.80
2022-11-25T01:21:34.113Z,-0.80
2022-11-25T01:24:02.972Z,-0.80
2022-11-25T01:26:30.549Z,-0.80
2022-11-25T01:29:02.934Z,-0.80
2022-11-25T01:31:33.029Z,-0.80
2022-11-25T01:34:02.721Z,-0.80
2022-11-25T01:36:30.191Z,-0.80
2022-11-25T01:38:59.296Z,-0.80
2022-11-25T01:41:28.976Z,-0.80
2022-11-25T01:44:20.103Z,-0.70
2022-11-25T01:46:56.098Z,-0.70
2022-11-25T01:49:30.372Z,-0.70
2022-11-25T01:52:02.852Z,-0.70
2022-11-25T01:54:34.475Z,-0.60
2022-11-25T01:57:10.950Z,-0.50
2022-11-25T01:59:43.831Z,-0.50
2022-11-25T02:02:11.702Z,-0.30
2022-11-25T02:04:40.279Z,-0.20
2022-11-25T02:07:24.182Z,0.00
2022-11-25T02:09:51.521Z,0.10
2022-11-25T02:12:19.921Z,0.10
2022-11-25T02:14:48.619Z,0.10
2022-11-25T02:17:15.590Z,0.20
2022-11-25T02:20:05.040Z,0.20
2022-11-25T02:23:03.165Z,0.30
2022-11-25T02:25:33.367Z,0.30
2022-11-25T02:28:16.864Z,0.20
2022-11-25T02:30:45.342Z,0.20
2022-11-25T02:33:13.439Z,0.20
2022-11-25T02:36:02.014Z,0.10
2022-11-25T02:38:39.524Z,0.10
2022-11-25T02:41:32.332Z,0.10
2022-11-25T02:44:03.201Z,0.00
2022-11-25T02:46:30.919Z,0.00
2022-11-25T02:49:14.799Z,-0.10
2022-11-25T02:51:44.998Z,-0.10
2022-11-25T02:54:13.335Z,-0.10
2022-11-25T02:56:40.674Z,-0.10
2022-11-25T02:59:08.909Z,-0.20
2022-11-25T03:01:36.501Z,-0.20
2022-11-25T03:04:06.526Z,-0.20
2022-11-25T03:06:33.621Z,-0.10
2022-11-25T03:09:02.217Z,0.10
2022-11-25T03:11:49.737Z,0.20
2022-11-25T03:14:17.011Z,0.20
2022-11-25T03:16:44.131Z,0.30
2022-11-25T03:19:11.254Z,0.30
2022-11-25T03:21:38.273Z,0.20
2022-11-25T03:24:05.448Z,0.20
2022-11-25T03:26:32.612Z,0.10
2022-11-25T03:28:59.420Z,0.10
2022-11-25T03:31:26.856Z,0.10
2022-11-25T03:33:55.277Z,0.00
2022-11-25T03:36:23.204Z,0.00
2022-11-25T03:38:50.472Z,0.00
2022-11-25T03:41:17.909Z,0.00
2022-11-25T03:43:46.028Z,0.00
2022-11-25T03:46:14.029Z,0.00
2022-11-25T03:48:40.982Z,0.00
2022-11-25T03:51:08.383Z,-0.10
2022-11-25T03:53:35.768Z,-0.10
2022-11-25T03:56:06.457Z,-0.10
2022-11-25T03:58:34.533Z,-0.10
2022-11-25T04:01:03.751Z,0.00
2022-11-25T04:03:31.389Z,-0.10
2022-11-25T04:05:58.976Z,-0.10
2022-11-25T04:08:27.344Z,-0.10
2022-11-25T04:10:55.613Z,-0.10
2022-11-25T04:13:25.474Z,-0.20
2022-11-25T04:15:52.753Z,-0.20
2022-11-25T04:18:21.303Z,-0.20
2022-11-25T04:20:51.790Z,-0.20
2022-11-25T04:23:18.646Z,-0.20
2022-11-25T04:25:54.449Z,-0.20
2022-11-25T04:28:31.065Z,-0.20
2022-11-25T04:30:58.167Z,-0.30
2022-11-25T04:33:25.268Z,-0.40
2022-11-25T04:35:52.869Z,-0.50
2022-11-25T04:38:20.598Z,-0.50
2022-11-25T04:40:48.025Z,-0.50
2022-11-25T04:43:19.026Z,-0.60
2022-11-25T04:46:13.557Z,-0.60
2022-11-25T04:48:41.178Z,-0.70
2022-11-25T04:51:08.770Z,-0.70
2022-11-25T04:53:35.627Z,-0.70
2022-11-25T04:56:04.057Z,-0.70
2022-11-25T04:58:56.911Z,-0.70
2022-11-25T05:01:23.853Z,-0.70
2022-11-25T05:03:57.655Z,-0.80
2022-11-25T05:06:26.359Z,-0.80
2022-11-25T05:08:53.763Z,-0.80
2022-11-25T05:11:23.117Z,-0.60
2022-11-25T05:13:50.955Z,-0.50
2022-11-25T05:16:18.841Z,-0.50
2022-11-25T05:18:45.947Z,-0.50
2022-11-25T05:21:13.310Z,-0.60
2022-11-25T05:23:42.225Z,-0.60
2022-11-25T05:26:09.473Z,-0.60
2022-11-25T05:28:46.344Z,-0.60
2022-11-25T05:31:14.472Z,-0.60
2022-11-25T05:33:41.343Z,-0.50
2022-11-25T05:36:10.994Z,-0.50
2022-11-25T05:38:46.137Z,-0.50
2022-11-25T05:41:17.640Z,-0.50
2022-11-25T05:43:47.124Z,-0.40
2022-11-25T05:46:14.544Z,-0.30
2022-11-25T05:48:47.345Z,-0.10
2022-11-25T05:51:14.447Z,0.10
2022-11-25T05:53:41.273Z,0.20
2022-11-25T05:56:09.877Z,0.30
2022-11-25T05:59:00.547Z,0.30
2022-11-25T06:01:41.752Z,0.40
2022-11-25T06:04:10.691Z,0.40
2022-11-25T06:06:37.901Z,0.40
2022-11-25T06:09:04.827Z,0.40
2022-11-25T06:11:31.750Z,0.30
2022-11-25T06:13:58.892Z,0.40
2022-11-25T06:16:26.462Z,0.40
2022-11-25T06:19:06.721Z,0.50
2022-11-25T06:21:34.062Z,0.50
2022-11-25T06:24:01.333Z,0.60
2022-11-25T06:26:28.679Z,0.60
2022-11-25T06:28:56.395Z,0.70
2022-11-25T06:31:26.137Z,0.80
2022-11-25T06:34:01.752Z,0.90
2022-11-25T06:36:28.737Z,1.00
2022-11-25T06:38:55.702Z,1.00
2022-11-25T06:41:23.094Z,1.10
2022-11-25T06:43:50.380Z,1.10
2022-11-25T06:46:24.464Z,1.20
2022-11-25T06:48:53.373Z,1.10
2022-11-25T06:51:20.687Z,1.00
2022-11-25T06:53:47.509Z,0.90
2022-11-25T06:56:23.418Z,0.90
2022-11-25T06:58:51.771Z,0.90
2022-11-25T07:01:21.729Z,0.80
2022-11-25T07:03:51.656Z,0.70
2022-11-25T07:06:20.299Z,0.70
2022-11-25T07:08:47.837Z,0.70
2022-11-25T07:11:22.405Z,0.70
2022-11-25T07:13:54.070Z,0.70
2022-11-25T07:16:21.264Z,0.60
2022-11-25T07:18:48.342Z,0.60
2022-11-25T07:21:17.939Z,0.60
2022-11-25T07:23:45.884Z,0.50
2022-11-25T07:26:21.774Z,0.40
2022-11-25T07:28:49.942Z,0.40
2022-11-25T07:31:24.247Z,0.40
2022-11-25T07:33:54.168Z,0.30
2022-11-25T07:36:22.941Z,0.30
2022-11-25T07:38:49.799Z,0.30
2022-11-25T07:41:19.676Z,0.40
2022-11-25T07:43:48.616Z,0.60
2022-11-25T07:46:26.532Z,0.70
2022-11-25T07:48:56.265Z,0.90
2022-11-25T07:51:26.103Z,1.10
2022-11-25T07:53:55.033Z,1.10
2022-11-25T07:56:22.298Z,1.30
2022-11-25T07:58:49.218Z,1.40
2022-11-25T08:01:17.674Z,1.40
2022-11-25T08:03:46.385Z,1.40
2022-11-25T08:06:16.259Z,1.40
2022-11-25T08:08:44.602Z,1.40
2022-11-25T08:11:17.179Z,1.50
2022-11-25T08:13:44.557Z,1.50
2022-11-25T08:16:14.485Z,1.50
2022-11-25T08:18:41.896Z,1.50
2022-11-25T08:21:11.872Z,1.50
2022-11-25T08:23:40.577Z,1.60
2022-11-25T08:26:12.785Z,1.60
2022-11-25T08:28:41.431Z,1.70
2022-11-25T08:31:20.089Z,1.70
2022-11-25T08:33:47.473Z,1.70
2022-11-25T08:36:15.492Z,1.80
2022-11-25T08:38:43.619Z,1.80
2022-11-25T08:41:16.147Z,1.90
2022-11-25T08:43:43.855Z,2.00
2022-11-25T08:46:23.154Z,2.10
2022-11-25T08:48:50.204Z,2.20
2022-11-25T08:51:21.761Z,2.30
2022-11-25T08:53:51.161Z,2.40
2022-11-25T08:56:25.515Z,2.50
2022-11-25T08:58:54.022Z,2.60
2022-11-25T09:01:22.208Z,2.70
2022-11-25T09:03:51.773Z,2.70
2022-11-25T09:06:20.098Z,2.80
2022-11-25T09:08:47.148Z,2.90
2022-11-25T09:11:15.057Z,3.00
2022-11-25T09:13:41.934Z,3.10
2022-11-25T09:16:09.675Z,3.30
2022-11-25T09:18:37.339Z,3.40
2022-11-25T09:21:13.360Z,3.50
2022-11-25T09:23:40.209Z,3.70
2022-11-25T09:26:08.157Z,3.90
2022-11-25T09:28:35.576Z,4.10
2022-11-25T09:31:09.693Z,4.70
2022-11-25T09:33:37.102Z,5.50
2022-11-25T09:36:05.958Z,6.30
2022-11-25T09:38:34.122Z,6.70
2022-11-25T09:41:47.658Z,7.20
2022-11-25T09:44:48.468Z,7.60
2022-11-25T09:47:33.589Z,8.00
2022-11-25T09:50:09.300Z,8.10
2022-11-25T09:53:10.536Z,8.20
2022-11-25T09:55:44.931Z,8.30
2022-11-25T09:58:23.718Z,8.60
2022-11-25T10:00:52.584Z,9.00
2022-11-25T10:03:53.979Z,9.60
2022-11-25T10:06:28.613Z,10.20
2022-11-25T10:08:57.547Z,10.70
2022-11-25T10:11:47.664Z,10.90
2022-11-25T10:14:30.132Z,11.00
2022-11-25T10:17:33.440Z,11.50
2022-11-25T10:20:23.268Z,11.70
2022-11-25T10:23:08.699Z,11.70
2022-11-25T10:25:45.822Z,11.50
2022-11-25T10:28:12.656Z,11.20
2022-11-25T10:30:45.840Z,11.00
2022-11-25T10:33:21.421Z,10.90
2022-11-25T10:36:20.238Z,11.00
2022-11-25T10:38:52.882Z,11.00
2022-11-25T10:41:23.697Z,11.10
2022-11-25T10:43:50.754Z,11.30
2022-11-25T10:47:11.528Z,11.70
2022-11-25T10:49:49.908Z,12.10
2022-11-25T10:52:22.638Z,12.50
2022-11-25T10:55:10.868Z,12.70
2022-11-25T10:57:37.752Z,12.60
2022-11-25T11:00:09.590Z,12.40
2022-11-25T11:02:41.289Z,12.10
2022-11-25T11:05:08.169Z,11.90
2022-11-25T11:07:41.847Z,11.70
2022-11-25T11:10:15.334Z,11.60
2022-11-25T11:13:03.671Z,11.40
2022-11-25T11:15:41.582Z,11.20
2022-11-25T11:18:25.435Z,11.00
2022-11-25T11:21:00.243Z,10.80
2022-11-25T11:23:28.400Z,10.70
2022-11-25T11:25:56.349Z,10.50
2022-11-25T11:28:33.084Z,10.40
2022-11-25T11:31:25.472Z,10.20
2022-11-25T11:34:11.287Z,10.00
2022-11-25T11:37:06.076Z,9.80
2022-11-25T11:40:00.681Z,9.60
2022-11-25T11:42:42.672Z,9.50
2022-11-25T11:45:22.507Z,9.30
2022-11-25T11:48:11.066Z,9.20
2022-11-25T11:51:25.696Z,9.10
2022-11-25T11:54:18.130Z,9.00
2022-11-25T11:56:55.522Z,9.00
2022-11-25T11:59:37.041Z,8.90
2022-11-25T12:02:12.949Z,8.70
2022-11-25T12:05:00.791Z,8.60
2022-11-25T12:07:56.762Z,8.50
2022-11-25T12:10:40.954Z,8.40
2022-11-25T12:13:35.195Z,8.20
2022-11-25T12:16:24.416Z,8.10
2022-11-25T12:19:13.622Z,8.00
2022-11-25T12:22:17.356Z,7.80
2022-11-25T12:24:54.325Z,7.70
2022-11-25T12:27:27.269Z,7.60
2022-11-25T12:30:12.636Z,7.50
2022-11-25T12:32:53.517Z,7.40
2022-11-25T12:35:46.921Z,7.40
2022-11-25T12:38:50.998Z,7.30
2022-11-25T12:41:39.664Z,7.30
2022-11-25T12:44:31.020Z,7.30
2022-11-25T12:46:58.701Z,7.30
2022-11-25T12:49:26.681Z,7.20
2022-11-25T12:52:13.409Z,7.20
2022-11-25T12:55:21.971Z,7.20
2022-11-25T12:58:06.605Z,7.20
2022-11-25T13:00:52.167Z,7.20
2022-11-25T13:03:49.929Z,7.30
2022-11-25T13:06:38.616Z,7.30
2022-11-25T13:09:57.087Z,7.20
2022-11-25T13:12:47.353Z,7.10
2022-11-25T13:15:31.092Z,7.00
2022-11-25T13:18:03.939Z,7.00
2022-11-25T13:20:30.921Z,6.90
2022-11-25T13:23:23.937Z,6.90
2022-11-25T13:26:11.744Z,6.90
2022-11-25T13:28:38.694Z,6.80
2022-11-25T13:31:14.763Z,6.80
2022-11-25T13:33:44.881Z,6.80
2022-11-25T13:36:21.765Z,6.80
2022-11-25T13:38:51.406Z,6.80
2022-11-25T13:41:21.302Z,6.70
2022-11-25T13:43:53.884Z,6.70
2022-11-25T13:46:44.258Z,6.70
2022-11-25T13:49:52.921Z,6.60
2022-11-25T13:52:42.150Z,6.60
2022-11-25T13:55:24.184Z,6.60
2022-11-25T13:58:09.544Z,6.60
2022-11-25T14:00:37.557Z,6.50
2022-11-25T14:03:19.670Z,6.50
2022-11-25T14:05:50.865Z,6.50
2022-11-25T14:08:30.882Z,6.50
2022-11-25T14:11:09.837Z,6.50
2022-11-25T14:13:55.746Z,6.50
2022-11-25T14:16:48.194Z,6.50
2022-11-25T14:19:52.836Z,6.50
2022-11-25T14:22:50.805Z,6.50
2022-11-25T14:25:27.592Z,6.50
2022-11-25T14:28:07.562Z,6.50
2022-11-25T14:30:35.871Z,6.50
2022-11-25T14:33:08.257Z,6.50
2022-11-25T14:35:45.340Z,6.50
2022-11-25T14:38:29.332Z,6.50
2022-11-25T14:41:05.005Z,6.50
2022-11-25T14:43:45.526Z,6.50
2022-11-25T14:46:15.499Z,6.50
2022-11-25T14:48:43.938Z,6.50
2022-11-25T14:51:18.636Z,6.50
2022-11-25T14:53:48.825Z,6.50
2022-11-25T14:56:36.819Z,6.50
2022-11-25T14:59:03.936Z,6.50
2022-11-25T15:01:33.527Z,6.40
2022-11-25T15:04:18.124Z,6.40
2022-11-25T15:06:53.077Z,6.30
2022-11-25T15:09:21.298Z,6.30
2022-11-25T15:11:51.356Z,6.30
2022-11-25T15:14:26.572Z,6.30
2022-11-25T15:16:54.546Z,6.20
2022-11-25T15:19:30.628Z,6.20
2022-11-25T15:24:55.796Z,6.20
2022-11-25T15:27:27.475Z,6.20
2022-11-25T15:29:56.208Z,6.20
2022-11-25T15:32:26.736Z,6.10
2022-11-25T15:34:56.060Z,6.10
2022-11-25T15:37:24.100Z,6.10
2022-11-25T15:40:11.285Z,6.10
2022-11-25T15:42:38.123Z,6.00
2022-11-25T15:45:11.335Z,6.00
2022-11-25T15:47:38.217Z,6.00
2022-11-25T15:50:19.520Z,6.00
2022-11-25T15:52:51.424Z,6.00
2022-11-25T15:55:35.584Z,6.00
2022-11-25T15:58:17.543Z,6.00
2022-11-25T16:01:03.942Z,5.90
2022-11-25T16:03:33.706Z,5.90
2022-11-25T16:06:18.349Z,5.90
2022-11-25T16:08:54.408Z,5.90
2022-11-25T16:11:23.262Z,5.90
2022-11-25T16:13:51.289Z,5.90
2022-11-25T16:16:32.088Z,5.90
2022-11-25T16:19:11.683Z,5.90
2022-11-25T16:21:53.314Z,5.80
2022-11-25T16:24:30.096Z,5.80
2022-11-25T16:27:02.720Z,5.80
2022-11-25T16:29:37.816Z,5.80
2022-11-25T16:32:19.719Z,5.80
2022-11-25T16:34:46.997Z,5.80
2022-11-25T16:37:13.942Z,5.80
2022-11-25T16:39:41.808Z,5.80
2022-11-25T16:42:17.409Z,5.80
2022-11-25T16:44:49.985Z,5.70
2022-11-25T16:47:18.882Z,5.70
2022-11-25T16:49:46.685Z,5.70
2022-11-25T16:52:14.272Z,5.70
2022-11-25T16:54:41.912Z,5.70
2022-11-25T16:57:16.762Z,5.70
2022-11-25T16:59:45.649Z,5.70
2022-11-25T17:02:21.947Z,5.70
2022-11-25T17:04:49.134Z,5.70
2022-11-25T17:07:32.645Z,5.80
2022-11-25T17:09:59.856Z,5.80
2022-11-25T17:12:31.027Z,5.80
2022-11-25T17:15:00.327Z,5.70
2022-11-25T17:17:28.237Z,5.70
2022-11-25T17:19:55.417Z,5.70
2022-11-25T17:22:24.950Z,5.70
2022-11-25T17:24:53.736Z,5.70
2022-11-25T17:27:29.310Z,5.70
2022-11-25T17:30:01.122Z,5.70
2022-11-25T17:32:28.234Z,5.70
2022-11-25T17:34:55.196Z,5.70
2022-11-25T17:37:24.234Z,5.70
2022-11-25T17:39:55.756Z,5.70
2022-11-25T17:42:32.457Z,5.70
2022-11-25T17:45:00.470Z,5.60
2022-11-25T17:47:27.395Z,5.60
2022-11-25T17:49:54.476Z,5.60
2022-11-25T17:52:21.521Z,5.60
2022-11-25T17:54:48.393Z,5.50
2022-11-25T17:57:20.888Z,5.50
2022-11-25T17:59:48.250Z,5.40
2022-11-25T18:02:22.045Z,5.40
2022-11-25T18:04:49.232Z,5.30
2022-11-25T18:07:16.324Z,5.30
2022-11-25T18:09:44.476Z,5.20
2022-11-25T18:12:28.069Z,5.20
2022-11-25T18:14:55.875Z,5.20
2022-11-25T18:17:23.092Z,5.30
2022-11-25T18:19:54.995Z,5.30
2022-11-25T18:26:11.161Z,5.40
2022-11-25T18:28:38.162Z,5.40
2022-11-25T18:31:06.364Z,5.40
2022-11-25T18:33:33.634Z,5.40
2022-11-25T18:36:00.796Z,5.40
2022-11-25T18:38:27.612Z,5.40
2022-11-25T18:40:54.979Z,5.40
2022-11-25T18:43:24.803Z,5.40
2022-11-25T18:45:53.482Z,5.40
2022-11-25T18:48:25.351Z,5.40
2022-11-25T18:50:54.822Z,5.40
2022-11-25T18:53:21.877Z,5.30
2022-11-25T18:55:49.497Z,5.30
2022-11-25T18:58:18.958Z,5.20
2022-11-25T19:00:49.090Z,5.20
2022-11-25T19:03:25.884Z,5.10
2022-11-25T19:05:55.868Z,5.10
2022-11-25T19:08:22.647Z,5.10
2022-11-25T19:10:51.264Z,5.10
2022-11-25T19:13:23.487Z,5.10
2022-11-25T19:15:51.321Z,5.10
2022-11-25T19:18:24.973Z,5.00
2022-11-25T19:20:51.923Z,5.10
2022-11-25T19:23:28.251Z,5.10
2022-11-25T19:26:00.321Z,5.00
2022-11-25T19:28:28.494Z,5.00
2022-11-25T19:30:59.417Z,5.00
2022-11-25T19:33:36.430Z,5.00
2022-11-25T19:36:05.393Z,5.00
2022-11-25T19:38:32.944Z,5.00
2022-11-25T19:40:59.705Z,4.90
2022-11-25T19:43:29.173Z,4.90
2022-11-25T19:45:57.768Z,4.90
2022-11-25T19:48:27.108Z,4.90
2022-11-25T19:50:59.754Z,4.90
2022-11-25T19:53:33.578Z,4.90
2022-11-25T19:56:04.136Z,4.90
2022-11-25T19:58:31.576Z,4.90
2022-11-25T20:01:02.270Z,4.80
2022-11-25T20:03:30.880Z,4.80
2022-11-25T20:05:58.164Z,4.80
2022-11-25T20:08:28.866Z,4.80
2022-11-25T20:10:57.751Z,4.80
2022-11-25T20:13:26.011Z,4.80
2022-11-25T20:15:55.896Z,4.80
2022-11-25T20:18:25.767Z,4.90
2022-11-25T20:21:02.951Z,4.90
2022-11-25T20:23:38.584Z,4.90
2022-11-25T20:26:24.315Z,4.90
2022-11-25T20:28:51.064Z,5.00
2022-11-25T20:31:17.984Z,5.00
2022-11-25T20:33:44.750Z,4.90
2022-11-25T20:36:16.786Z,5.00
2022-11-25T20:38:54.387Z,5.00
2022-11-25T20:41:27.478Z,5.00
2022-11-25T20:43:56.420Z,5.00
2022-11-25T20:46:32.100Z,5.00
2022-11-25T20:49:02.255Z,5.00
2022-11-25T20:51:29.148Z,5.00
2022-11-25T20:53:57.750Z,5.00
2022-11-25T20:56:26.505Z,5.00
2022-11-25T20:58:54.173Z,5.00
2022-11-25T21:01:21.227Z,5.00
2022-11-25T21:03:50.086Z,5.00
2022-11-25T21:06:19.567Z,5.00
2022-11-25T21:08:52.599Z,5.00
2022-11-25T21:11:20.538Z,5.00
2022-11-25T21:13:47.509Z,5.00
2022-11-25T21:16:14.406Z,5.00
2022-11-25T21:18:41.764Z,5.00
2022-11-25T21:21:18.812Z,5.00
2022-11-25T21:23:47.408Z,5.00
2022-11-25T21:26:19.520Z,5.00
2022-11-25T21:28:48.719Z,5.10
2022-11-25T21:31:18.048Z,5.00
2022-11-25T21:33:46.000Z,5.10
2022-11-25T21:36:19.522Z,5.10
2022-11-25T21:38:47.213Z,5.10
2022-11-25T21:41:13.994Z,5.10
2022-11-25T21:43:43.804Z,5.10
2022-11-25T21:46:18.495Z,5.10
2022-11-25T21:48:46.315Z,5.10
2022-11-25T21:51:26.537Z,5.10
2022-11-25T21:54:19.950Z,5.10
2022-11-25T21:56:46.822Z,5.10
2022-11-25T21:59:19.836Z,5.10
2022-11-25T22:01:47.489Z,5.10
2022-11-25T22:04:20.424Z,5.10
2022-11-25T22:06:48.294Z,5.10
2022-11-25T22:09:15.102Z,5.10
2022-11-25T22:11:45.798Z,5.10
2022-11-25T22:14:25.344Z,5.10
2022-11-25T22:16:52.149Z,5.10
2022-11-25T22:19:24.894Z,5.10
2022-11-25T22:21:52.791Z,5.00
2022-11-25T22:24:20.841Z,5.00
2022-11-25T22:26:53.448Z,5.00
2022-11-25T22:29:34.113Z,5.00
2022-11-25T22:32:07.050Z,5.00
2022-11-25T22:34:36.985Z,5.00
2022-11-25T22:37:03.885Z,5.00
2022-11-25T22:39:30.572Z,5.00
2022-11-25T22:42:05.396Z,5.00
2022-11-25T22:44:45.310Z,5.10
2022-11-25T22:47:30.217Z,5.10
2022-11-25T22:49:57.122Z,5.10
2022-11-25T22:52:32.575Z,5.10
2022-11-25T22:55:19.737Z,5.10
2022-11-25T22:57:47.495Z,5.10
2022-11-25T23:00:24.852Z,5.10
2022-11-25T23:03:21.717Z,5.10
2022-11-25T23:05:50.543Z,5.10
2022-11-25T23:08:37.294Z,5.00
2022-11-25T23:11:04.252Z,5.10
2022-11-25T23:13:31.000Z,5.00
2022-11-25T23:15:59.845Z,5.10
2022-11-25T23:18:29.558Z,5.00
2022-11-25T23:20:57.843Z,5.10
2022-11-25T23:23:27.174Z,5.10
2022-11-25T23:25:54.711Z,5.00
2022-11-25T23:28:21.815Z,5.10
2022-11-25T23:30:53.479Z,5.10
2022-11-25T23:33:30.723Z,5.10
2022-11-25T23:35:58.832Z,5.00
2022-11-25T23:38:28.059Z,5.00
2022-11-25T23:40:56.049Z,5.00
2022-11-25T23:43:22.763Z,5.00
2022-11-25T23:45:55.739Z,5.00
2022-11-25T23:48:25.900Z,5.00
2022-11-25T23:50:55.210Z,5.00
2022-11-25T23:53:34.481Z,5.00
2022-11-25T23:56:01.442Z,5.00
2022-11-25T23:58:28.534Z,4.90
